sensor_id;sensor_type;location;lat;lon;timestamp;temperature;humidity
69208;SHT31;56321;47.662;8.878;2022-09-03T00:01:52;18.19;72.88
69208;SHT31;56321;47.662;8.878;2022-09-03T00:04:31;18.17;73.03
69208;SHT31;56321;47.662;8.878;2022-09-03T00:07:03;18.21;73.05
69208;SHT31;56321;47.662;8.878;2022-09-03T00:09:45;18.21;73.10
69208;SHT31;56321;47.662;8.878;2022-09-03T00:12:22;18.21;73.05
69208;SHT31;56321;47.662;8.878;2022-09-03T00:15:04;18.18;73.34
69208;SHT31;56321;47.662;8.878;2022-09-03T00:20:18;18.22;73.15
69208;SHT31;56321;47.662;8.878;2022-09-03T00:22:47;18.21;73.19
69208;SHT31;56321;47.662;8.878;2022-09-03T00:25:18;18.19;73.33
69208;SHT31;56321;47.662;8.878;2022-09-03T00:27:49;18.19;73.57
69208;SHT31;56321;47.662;8.878;2022-09-03T00:30:16;18.19;73.62
69208;SHT31;56321;47.662;8.878;2022-09-03T00:32:54;18.18;73.86
69208;SHT31;56321;47.662;8.878;2022-09-03T00:35:34;18.21;74.05
69208;SHT31;56321;47.662;8.878;2022-09-03T00:38:01;18.24;73.96
69208;SHT31;56321;47.662;8.878;2022-09-03T00:40:52;18.21;74.24
69208;SHT31;56321;47.662;8.878;2022-09-03T00:43:39;18.24;74.16
69208;SHT31;56321;47.662;8.878;2022-09-03T00:54:14;18.28;73.97
69208;SHT31;56321;47.662;8.878;2022-09-03T00:59:39;18.34;73.89
69208;SHT31;56321;47.662;8.878;2022-09-03T01:02:19;18.35;73.93
69208;SHT31;56321;47.662;8.878;2022-09-03T01:05:17;18.39;73.68
69208;SHT31;56321;47.662;8.878;2022-09-03T01:10:51;18.44;73.45
69208;SHT31;56321;47.662;8.878;2022-09-03T01:13:58;18.45;73.44
69208;SHT31;56321;47.662;8.878;2022-09-03T01:16:54;18.44;73.34
69208;SHT31;56321;47.662;8.878;2022-09-03T01:19:40;18.44;73.59
69208;SHT31;56321;47.662;8.878;2022-09-03T01:24:58;18.51;73.10
69208;SHT31;56321;47.662;8.878;2022-09-03T01:30:04;18.60;72.63
69208;SHT31;56321;47.662;8.878;2022-09-03T01:32:48;18.63;72.24
69208;SHT31;56321;47.662;8.878;2022-09-03T01:38:11;18.73;71.30
69208;SHT31;56321;47.662;8.878;2022-09-03T01:46:38;18.86;71.29
69208;SHT31;56321;47.662;8.878;2022-09-03T01:49:13;18.92;71.02
69208;SHT31;56321;47.662;8.878;2022-09-03T01:51:44;18.94;71.17
69208;SHT31;56321;47.662;8.878;2022-09-03T01:54:37;18.97;71.33
69208;SHT31;56321;47.662;8.878;2022-09-03T01:57:11;19.00;71.45
69208;SHT31;56321;47.662;8.878;2022-09-03T02:02:22;18.99;71.31
69208;SHT31;56321;47.662;8.878;2022-09-03T02:07:41;19.02;71.37
69208;SHT31;56321;47.662;8.878;2022-09-03T02:10:15;19.00;71.30
69208;SHT31;56321;47.662;8.878;2022-09-03T02:12:45;19.06;71.66
69208;SHT31;56321;47.662;8.878;2022-09-03T02:15:14;19.07;71.79
69208;SHT31;56321;47.662;8.878;2022-09-03T02:17:41;19.08;71.93
69208;SHT31;56321;47.662;8.878;2022-09-03T02:20:09;19.11;72.23
69208;SHT31;56321;47.662;8.878;2022-09-03T02:22:37;19.11;72.42
69208;SHT31;56321;47.662;8.878;2022-09-03T02:25:03;19.11;72.56
69208;SHT31;56321;47.662;8.878;2022-09-03T02:27:29;19.13;72.63
69208;SHT31;56321;47.662;8.878;2022-09-03T02:29:56;19.14;72.74
69208;SHT31;56321;47.662;8.878;2022-09-03T02:32:21;19.10;72.74
69208;SHT31;56321;47.662;8.878;2022-09-03T02:34:46;19.11;73.13
69208;SHT31;56321;47.662;8.878;2022-09-03T02:37:14;19.14;73.17
69208;SHT31;56321;47.662;8.878;2022-09-03T02:39:39;19.11;73.25
69208;SHT31;56321;47.662;8.878;2022-09-03T02:42:05;19.08;73.15
69208;SHT31;56321;47.662;8.878;2022-09-03T02:44:32;19.06;73.26
69208;SHT31;56321;47.662;8.878;2022-09-03T02:47:02;19.08;73.28
69208;SHT31;56321;47.662;8.878;2022-09-03T02:49:28;19.03;73.35
69208;SHT31;56321;47.662;8.878;2022-09-03T02:51:58;19.03;73.29
69208;SHT31;56321;47.662;8.878;2022-09-03T02:54:25;19.03;73.03
69208;SHT31;56321;47.662;8.878;2022-09-03T02:56:51;19.03;72.98
69208;SHT31;56321;47.662;8.878;2022-09-03T02:59:16;19.03;73.12
69208;SHT31;56321;47.662;8.878;2022-09-03T03:01:42;19.02;73.19
69208;SHT31;56321;47.662;8.878;2022-09-03T03:04:07;19.00;73.23
69208;SHT31;56321;47.662;8.878;2022-09-03T03:06:33;19.00;73.28
69208;SHT31;56321;47.662;8.878;2022-09-03T03:08:58;19.00;73.31
69208;SHT31;56321;47.662;8.878;2022-09-03T03:11:24;18.99;73.29
69208;SHT31;56321;47.662;8.878;2022-09-03T03:13:51;18.96;73.47
69208;SHT31;56321;47.662;8.878;2022-09-03T03:16:17;18.97;73.48
69208;SHT31;56321;47.662;8.878;2022-09-03T03:18:42;18.93;73.48
69208;SHT31;56321;47.662;8.878;2022-09-03T03:21:13;18.92;73.64
69208;SHT31;56321;47.662;8.878;2022-09-03T03:23:39;18.90;73.67
69208;SHT31;56321;47.662;8.878;2022-09-03T03:26:07;18.87;73.62
69208;SHT31;56321;47.662;8.878;2022-09-03T03:28:34;18.87;73.80
69208;SHT31;56321;47.662;8.878;2022-09-03T03:31:14;18.84;74.00
69208;SHT31;56321;47.662;8.878;2022-09-03T03:33:40;18.80;73.84
69208;SHT31;56321;47.662;8.878;2022-09-03T03:36:11;18.82;73.89
69208;SHT31;56321;47.662;8.878;2022-09-03T03:38:37;18.77;74.03
69208;SHT31;56321;47.662;8.878;2022-09-03T03:41:25;18.77;74.05
69208;SHT31;56321;47.662;8.878;2022-09-03T03:43:52;18.76;73.88
69208;SHT31;56321;47.662;8.878;2022-09-03T03:46:19;18.76;74.04
69208;SHT31;56321;47.662;8.878;2022-09-03T03:48:46;18.75;73.95
69208;SHT31;56321;47.662;8.878;2022-09-03T03:51:12;18.77;73.91
69208;SHT31;56321;47.662;8.878;2022-09-03T03:53:37;18.75;74.04
69208;SHT31;56321;47.662;8.878;2022-09-03T03:56:05;18.77;74.15
69208;SHT31;56321;47.662;8.878;2022-09-03T03:58:32;18.76;74.19
69208;SHT31;56321;47.662;8.878;2022-09-03T04:03:34;18.76;74.38
69208;SHT31;56321;47.662;8.878;2022-09-03T04:05:59;18.76;74.31
69208;SHT31;56321;47.662;8.878;2022-09-03T04:08:26;18.77;74.37
69208;SHT31;56321;47.662;8.878;2022-09-03T04:10:52;18.76;74.29
69208;SHT31;56321;47.662;8.878;2022-09-03T04:13:17;18.76;74.27
69208;SHT31;56321;47.662;8.878;2022-09-03T04:15:43;18.76;74.28
69208;SHT31;56321;47.662;8.878;2022-09-03T04:18:09;18.77;74.75
69208;SHT31;56321;47.662;8.878;2022-09-03T04:20:37;18.80;74.68
69208;SHT31;56321;47.662;8.878;2022-09-03T04:23:04;18.80;74.85
69208;SHT31;56321;47.662;8.878;2022-09-03T04:25:30;18.75;74.69
69208;SHT31;56321;47.662;8.878;2022-09-03T04:27:56;18.73;75.38
69208;SHT31;56321;47.662;8.878;2022-09-03T04:30:21;18.75;75.43
69208;SHT31;56321;47.662;8.878;2022-09-03T04:32:50;18.73;75.49
69208;SHT31;56321;47.662;8.878;2022-09-03T04:35:24;18.72;75.63
69208;SHT31;56321;47.662;8.878;2022-09-03T04:37:50;18.72;75.70
69208;SHT31;56321;47.662;8.878;2022-09-03T04:40:15;18.70;75.75
69208;SHT31;56321;47.662;8.878;2022-09-03T04:42:41;18.69;75.63
69208;SHT31;56321;47.662;8.878;2022-09-03T04:45:07;18.69;75.58
69208;SHT31;56321;47.662;8.878;2022-09-03T04:47:33;18.69;75.80
69208;SHT31;56321;47.662;8.878;2022-09-03T04:50:00;18.65;75.81
69208;SHT31;56321;47.662;8.878;2022-09-03T04:52:27;18.67;75.65
69208;SHT31;56321;47.662;8.878;2022-09-03T04:54:55;18.66;75.55
69208;SHT31;56321;47.662;8.878;2022-09-03T04:57:21;18.65;75.63
69208;SHT31;56321;47.662;8.878;2022-09-03T04:59:47;18.65;75.86
69208;SHT31;56321;47.662;8.878;2022-09-03T05:02:13;18.62;75.99
69208;SHT31;56321;47.662;8.878;2022-09-03T05:04:38;18.57;76.05
69208;SHT31;56321;47.662;8.878;2022-09-03T05:07:04;18.56;75.99
69208;SHT31;56321;47.662;8.878;2022-09-03T05:09:29;18.57;76.24
69208;SHT31;56321;47.662;8.878;2022-09-03T05:11:55;18.56;76.24
69208;SHT31;56321;47.662;8.878;2022-09-03T05:14:20;18.55;76.35
69208;SHT31;56321;47.662;8.878;2022-09-03T05:16:45;18.53;76.37
69208;SHT31;56321;47.662;8.878;2022-09-03T05:19:11;18.53;76.34
69208;SHT31;56321;47.662;8.878;2022-09-03T05:21:36;18.56;76.49
69208;SHT31;56321;47.662;8.878;2022-09-03T05:24:03;18.53;76.46
69208;SHT31;56321;47.662;8.878;2022-09-03T05:26:30;18.52;76.63
69208;SHT31;56321;47.662;8.878;2022-09-03T05:28:58;18.52;76.62
69208;SHT31;56321;47.662;8.878;2022-09-03T05:31:25;18.52;76.63
69208;SHT31;56321;47.662;8.878;2022-09-03T05:33:54;18.51;76.65
69208;SHT31;56321;47.662;8.878;2022-09-03T05:36:23;18.51;76.73
69208;SHT31;56321;47.662;8.878;2022-09-03T05:38:49;18.53;76.92
69208;SHT31;56321;47.662;8.878;2022-09-03T05:41:16;18.59;77.19
69208;SHT31;56321;47.662;8.878;2022-09-03T05:43:42;18.57;76.91
69208;SHT31;56321;47.662;8.878;2022-09-03T05:46:10;18.59;77.07
69208;SHT31;56321;47.662;8.878;2022-09-03T05:48:37;18.59;77.02
69208;SHT31;56321;47.662;8.878;2022-09-03T05:51:05;18.63;77.22
69208;SHT31;56321;47.662;8.878;2022-09-03T05:53:34;18.65;77.12
69208;SHT31;56321;47.662;8.878;2022-09-03T05:56:01;18.66;77.27
69208;SHT31;56321;47.662;8.878;2022-09-03T05:58:36;18.66;77.49
69208;SHT31;56321;47.662;8.878;2022-09-03T06:01:11;18.67;77.55
69208;SHT31;56321;47.662;8.878;2022-09-03T06:03:39;18.70;77.52
69208;SHT31;56321;47.662;8.878;2022-09-03T06:06:05;18.73;77.70
69208;SHT31;56321;47.662;8.878;2022-09-03T06:08:31;18.75;77.68
69208;SHT31;56321;47.662;8.878;2022-09-03T06:10:57;18.72;77.50
69208;SHT31;56321;47.662;8.878;2022-09-03T06:13:23;18.73;77.55
69208;SHT31;56321;47.662;8.878;2022-09-03T06:15:49;18.72;77.49
69208;SHT31;56321;47.662;8.878;2022-09-03T06:18:14;18.73;77.68
69208;SHT31;56321;47.662;8.878;2022-09-03T06:20:39;18.75;77.66
69208;SHT31;56321;47.662;8.878;2022-09-03T06:23:04;18.73;77.63
69208;SHT31;56321;47.662;8.878;2022-09-03T06:25:30;18.72;77.74
69208;SHT31;56321;47.662;8.878;2022-09-03T06:27:56;18.72;77.75
69208;SHT31;56321;47.662;8.878;2022-09-03T06:30:21;18.72;77.69
69208;SHT31;56321;47.662;8.878;2022-09-03T06:32:48;18.73;77.66
69208;SHT31;56321;47.662;8.878;2022-09-03T06:35:15;18.75;77.56
69208;SHT31;56321;47.662;8.878;2022-09-03T06:37:41;18.76;77.49
69208;SHT31;56321;47.662;8.878;2022-09-03T06:40:08;18.79;77.54
69208;SHT31;56321;47.662;8.878;2022-09-03T06:42:55;18.82;77.63
69208;SHT31;56321;47.662;8.878;2022-09-03T06:45:24;18.86;77.12
69208;SHT31;56321;47.662;8.878;2022-09-03T06:47:49;18.86;77.59
69208;SHT31;56321;47.662;8.878;2022-09-03T06:50:14;18.87;77.90
69208;SHT31;56321;47.662;8.878;2022-09-03T06:52:42;18.89;77.52
69208;SHT31;56321;47.662;8.878;2022-09-03T06:55:08;18.93;77.63
69208;SHT31;56321;47.662;8.878;2022-09-03T06:57:33;18.96;77.30
69208;SHT31;56321;47.662;8.878;2022-09-03T06:59:58;19.02;76.89
69208;SHT31;56321;47.662;8.878;2022-09-03T07:02:24;19.00;76.22
69208;SHT31;56321;47.662;8.878;2022-09-03T07:04:49;19.03;75.65
69208;SHT31;56321;47.662;8.878;2022-09-03T07:07:15;19.08;75.95
69208;SHT31;56321;47.662;8.878;2022-09-03T07:09:40;19.10;76.00
69208;SHT31;56321;47.662;8.878;2022-09-03T07:12:06;19.13;76.43
69208;SHT31;56321;47.662;8.878;2022-09-03T07:14:31;19.18;76.20
69208;SHT31;56321;47.662;8.878;2022-09-03T07:16:57;19.20;75.79
69208;SHT31;56321;47.662;8.878;2022-09-03T07:19:23;19.27;76.01
69208;SHT31;56321;47.662;8.878;2022-09-03T07:21:48;19.30;76.08
69208;SHT31;56321;47.662;8.878;2022-09-03T07:24:13;19.32;75.81
69208;SHT31;56321;47.662;8.878;2022-09-03T07:26:41;19.34;75.98
69208;SHT31;56321;47.662;8.878;2022-09-03T07:29:12;19.41;76.27
69208;SHT31;56321;47.662;8.878;2022-09-03T07:31:41;19.47;76.47
69208;SHT31;56321;47.662;8.878;2022-09-03T07:34:08;19.51;76.16
69208;SHT31;56321;47.662;8.878;2022-09-03T07:36:36;19.55;76.18
69208;SHT31;56321;47.662;8.878;2022-09-03T07:39:07;19.59;75.74
69208;SHT31;56321;47.662;8.878;2022-09-03T07:41:33;19.65;75.84
69208;SHT31;56321;47.662;8.878;2022-09-03T07:43:59;19.69;75.66
69208;SHT31;56321;47.662;8.878;2022-09-03T07:46:31;19.75;75.00
69208;SHT31;56321;47.662;8.878;2022-09-03T07:48:58;19.80;74.98
69208;SHT31;56321;47.662;8.878;2022-09-03T07:51:28;19.83;74.82
69208;SHT31;56321;47.662;8.878;2022-09-03T07:53:56;19.93;75.59
69208;SHT31;56321;47.662;8.878;2022-09-03T07:56:22;20.03;75.32
69208;SHT31;56321;47.662;8.878;2022-09-03T07:58:48;20.12;75.09
69208;SHT31;56321;47.662;8.878;2022-09-03T08:01:20;20.16;75.47
69208;SHT31;56321;47.662;8.878;2022-09-03T08:03:48;20.27;75.31
69208;SHT31;56321;47.662;8.878;2022-09-03T08:06:15;20.37;74.70
69208;SHT31;56321;47.662;8.878;2022-09-03T08:08:41;20.48;74.42
69208;SHT31;56321;47.662;8.878;2022-09-03T08:11:14;20.58;73.44
69208;SHT31;56321;47.662;8.878;2022-09-03T08:13:40;20.64;73.19
69208;SHT31;56321;47.662;8.878;2022-09-03T08:16:08;20.74;73.70
69208;SHT31;56321;47.662;8.878;2022-09-03T08:18:34;20.84;73.18
69208;SHT31;56321;47.662;8.878;2022-09-03T08:21:08;20.96;72.25
69208;SHT31;56321;47.662;8.878;2022-09-03T08:23:38;21.03;71.70
69208;SHT31;56321;47.662;8.878;2022-09-03T08:26:03;21.14;71.83
69208;SHT31;56321;47.662;8.878;2022-09-03T08:28:29;21.31;72.52
69208;SHT31;56321;47.662;8.878;2022-09-03T08:31:03;21.44;72.18
69208;SHT31;56321;47.662;8.878;2022-09-03T08:33:28;21.55;71.08
69208;SHT31;56321;47.662;8.878;2022-09-03T08:36:11;21.70;71.63
69208;SHT31;56321;47.662;8.878;2022-09-03T08:38:41;21.82;71.30
69208;SHT31;56321;47.662;8.878;2022-09-03T08:43:56;22.09;69.83
69208;SHT31;56321;47.662;8.878;2022-09-03T08:49:12;22.39;67.90
69208;SHT31;56321;47.662;8.878;2022-09-03T08:51:40;22.52;68.45
69208;SHT31;56321;47.662;8.878;2022-09-03T08:54:08;22.66;68.99
69208;SHT31;56321;47.662;8.878;2022-09-03T08:56:38;22.80;68.75
69208;SHT31;56321;47.662;8.878;2022-09-03T08:59:04;22.94;67.07
69208;SHT31;56321;47.662;8.878;2022-09-03T09:04:58;23.16;65.41
69208;SHT31;56321;47.662;8.878;2022-09-03T09:07:34;23.32;64.70
69208;SHT31;56321;47.662;8.878;2022-09-03T09:21:05;24.18;62.60
69208;SHT31;56321;47.662;8.878;2022-09-03T09:23:36;24.34;62.40
69208;SHT31;56321;47.662;8.878;2022-09-03T09:26:06;24.54;62.08
69208;SHT31;56321;47.662;8.878;2022-09-03T09:28:37;24.73;60.83
69208;SHT31;56321;47.662;8.878;2022-09-03T09:31:05;24.86;59.89
69208;SHT31;56321;47.662;8.878;2022-09-03T09:33:33;24.99;58.99
69208;SHT31;56321;47.662;8.878;2022-09-03T09:36:00;25.11;59.76
69208;SHT31;56321;47.662;8.878;2022-09-03T09:38:32;25.26;59.95
69208;SHT31;56321;47.662;8.878;2022-09-03T09:43:34;25.44;59.08
69208;SHT31;56321;47.662;8.878;2022-09-03T09:46:06;25.54;59.35
69208;SHT31;56321;47.662;8.878;2022-09-03T09:48:37;25.54;57.89
69208;SHT31;56321;47.662;8.878;2022-09-03T09:51:12;25.41;56.90
69208;SHT31;56321;47.662;8.878;2022-09-03T09:53:39;25.11;57.45
69208;SHT31;56321;47.662;8.878;2022-09-03T09:56:05;24.82;58.27
69208;SHT31;56321;47.662;8.878;2022-09-03T09:58:32;24.51;60.99
69208;SHT31;56321;47.662;8.878;2022-09-03T10:01:19;24.22;63.00
69208;SHT31;56321;47.662;8.878;2022-09-03T10:03:55;23.92;63.41
69208;SHT31;56321;47.662;8.878;2022-09-03T10:06:23;23.77;64.41
69208;SHT31;56321;47.662;8.878;2022-09-03T10:09:15;23.59;66.35
69208;SHT31;56321;47.662;8.878;2022-09-03T10:11:44;23.49;66.79
69208;SHT31;56321;47.662;8.878;2022-09-03T10:14:22;23.35;67.53
69208;SHT31;56321;47.662;8.878;2022-09-03T10:16:55;23.25;67.61
69208;SHT31;56321;47.662;8.878;2022-09-03T10:19:40;23.16;67.72
69208;SHT31;56321;47.662;8.878;2022-09-03T10:22:28;23.05;66.90
69208;SHT31;56321;47.662;8.878;2022-09-03T10:24:58;22.98;68.74
69208;SHT31;56321;47.662;8.878;2022-09-03T10:27:24;22.93;69.46
69208;SHT31;56321;47.662;8.878;2022-09-03T10:29:51;22.94;69.84
69208;SHT31;56321;47.662;8.878;2022-09-03T10:51:05;22.66;69.54
69208;SHT31;56321;47.662;8.878;2022-09-03T11:04:50;23.56;69.51
69208;SHT31;56321;47.662;8.878;2022-09-03T11:07:20;23.93;68.68
69208;SHT31;56321;47.662;8.878;2022-09-03T11:10:15;24.21;67.43
69208;SHT31;56321;47.662;8.878;2022-09-03T11:12:43;24.22;64.74
69208;SHT31;56321;47.662;8.878;2022-09-03T11:15:22;24.08;63.84
69208;SHT31;56321;47.662;8.878;2022-09-03T11:20:26;23.65;64.83
69208;SHT31;56321;47.662;8.878;2022-09-03T11:22:55;23.56;65.47
69208;SHT31;56321;47.662;8.878;2022-09-03T11:25:25;23.56;66.36
69208;SHT31;56321;47.662;8.878;2022-09-03T11:34:00;23.98;62.15
69208;SHT31;56321;47.662;8.878;2022-09-03T11:36:31;24.27;63.27
69208;SHT31;56321;47.662;8.878;2022-09-03T11:38:58;24.49;63.18
69208;SHT31;56321;47.662;8.878;2022-09-03T11:41:26;24.80;61.49
69208;SHT31;56321;47.662;8.878;2022-09-03T11:43:53;25.14;59.57
69208;SHT31;56321;47.662;8.878;2022-09-03T11:48:49;25.65;57.51
69208;SHT31;56321;47.662;8.878;2022-09-03T11:54:04;26.03;54.03
69208;SHT31;56321;47.662;8.878;2022-09-03T11:56:31;26.15;54.05
69208;SHT31;56321;47.662;8.878;2022-09-03T11:59:25;26.27;54.84
69208;SHT31;56321;47.662;8.878;2022-09-03T12:01:59;26.45;53.28
69208;SHT31;56321;47.662;8.878;2022-09-03T12:08:17;26.90;51.10
69208;SHT31;56321;47.662;8.878;2022-09-03T12:11:03;26.92;51.03
69208;SHT31;56321;47.662;8.878;2022-09-03T12:16:58;26.80;52.60
69208;SHT31;56321;47.662;8.878;2022-09-03T12:21:53;26.57;53.01
69208;SHT31;56321;47.662;8.878;2022-09-03T12:24:19;26.48;52.30
69208;SHT31;56321;47.662;8.878;2022-09-03T12:26:45;26.27;52.74
69208;SHT31;56321;47.662;8.878;2022-09-03T12:29:25;26.13;52.88
69208;SHT31;56321;47.662;8.878;2022-09-03T12:31:51;26.07;53.12
69208;SHT31;56321;47.662;8.878;2022-09-03T12:34:19;25.92;53.81
69208;SHT31;56321;47.662;8.878;2022-09-03T12:36:47;25.78;53.85
69208;SHT31;56321;47.662;8.878;2022-09-03T12:39:17;25.54;53.30
69208;SHT31;56321;47.662;8.878;2022-09-03T12:42:03;25.27;53.86
69208;SHT31;56321;47.662;8.878;2022-09-03T12:49:46;24.89;54.75
69208;SHT31;56321;47.662;8.878;2022-09-03T12:52:41;24.86;54.95
69208;SHT31;56321;47.662;8.878;2022-09-03T12:57:53;24.73;55.13
69208;SHT31;56321;47.662;8.878;2022-09-03T13:00:23;24.69;55.66
69208;SHT31;56321;47.662;8.878;2022-09-03T13:02:59;24.71;54.83
69208;SHT31;56321;47.662;8.878;2022-09-03T13:05:31;24.69;55.08
69208;SHT31;56321;47.662;8.878;2022-09-03T13:07:59;24.69;55.80
69208;SHT31;56321;47.662;8.878;2022-09-03T13:10:30;24.71;55.29
69208;SHT31;56321;47.662;8.878;2022-09-03T13:13:02;24.69;55.45
69208;SHT31;56321;47.662;8.878;2022-09-03T13:15:28;24.72;55.27
69208;SHT31;56321;47.662;8.878;2022-09-03T13:18:09;24.71;55.76
69208;SHT31;56321;47.662;8.878;2022-09-03T13:26:01;24.63;56.24
69208;SHT31;56321;47.662;8.878;2022-09-03T13:31:42;24.58;55.78
69208;SHT31;56321;47.662;8.878;2022-09-03T13:34:25;24.54;55.07
69208;SHT31;56321;47.662;8.878;2022-09-03T13:37:27;24.44;54.96
69208;SHT31;56321;47.662;8.878;2022-09-03T13:40:02;24.44;56.45
69208;SHT31;56321;47.662;8.878;2022-09-03T13:42:40;24.48;56.64
69208;SHT31;56321;47.662;8.878;2022-09-03T13:45:28;24.51;55.72
69208;SHT31;56321;47.662;8.878;2022-09-03T13:48:37;24.52;56.19
69208;SHT31;56321;47.662;8.878;2022-09-03T13:54:14;24.45;54.94
69208;SHT31;56321;47.662;8.878;2022-09-03T13:57:03;24.32;53.75
69208;SHT31;56321;47.662;8.878;2022-09-03T13:59:51;24.25;54.87
69208;SHT31;56321;47.662;8.878;2022-09-03T14:02:35;24.21;54.88
69208;SHT31;56321;47.662;8.878;2022-09-03T14:05:08;24.20;55.82
69208;SHT31;56321;47.662;8.878;2022-09-03T14:12:42;24.31;56.83
69208;SHT31;56321;47.662;8.878;2022-09-03T14:15:21;24.36;56.32
69208;SHT31;56321;47.662;8.878;2022-09-03T14:20:35;24.39;57.97
69208;SHT31;56321;47.662;8.878;2022-09-03T14:26:04;24.48;58.39
69208;SHT31;56321;47.662;8.878;2022-09-03T14:28:44;24.51;57.97
69208;SHT31;56321;47.662;8.878;2022-09-03T14:34:06;24.54;56.34
69208;SHT31;56321;47.662;8.878;2022-09-03T14:39:33;24.49;56.07
69208;SHT31;56321;47.662;8.878;2022-09-03T15:02:25;24.31;55.48
69208;SHT31;56321;47.662;8.878;2022-09-03T15:07:53;24.32;58.29
69208;SHT31;56321;47.662;8.878;2022-09-03T15:13:11;24.35;56.80
69208;SHT31;56321;47.662;8.878;2022-09-03T15:18:16;24.39;58.77
69208;SHT31;56321;47.662;8.878;2022-09-03T15:20:49;24.41;57.66
69208;SHT31;56321;47.662;8.878;2022-09-03T15:23:19;24.38;57.53
69208;SHT31;56321;47.662;8.878;2022-09-03T15:28:33;24.27;57.06
69208;SHT31;56321;47.662;8.878;2022-09-03T15:31:19;24.25;56.79
69208;SHT31;56321;47.662;8.878;2022-09-03T15:39:08;24.17;56.86
69208;SHT31;56321;47.662;8.878;2022-09-03T15:41:53;24.10;56.25
69208;SHT31;56321;47.662;8.878;2022-09-03T15:44:21;24.13;57.09
69208;SHT31;56321;47.662;8.878;2022-09-03T15:46:59;24.07;56.54
69208;SHT31;56321;47.662;8.878;2022-09-03T15:55:37;24.01;59.16
69208;SHT31;56321;47.662;8.878;2022-09-03T16:00:55;24.00;57.09
69208;SHT31;56321;47.662;8.878;2022-09-03T16:03:48;23.90;57.35
69208;SHT31;56321;47.662;8.878;2022-09-03T16:12:09;23.77;57.85
69208;SHT31;56321;47.662;8.878;2022-09-03T16:14:42;23.71;57.44
69208;SHT31;56321;47.662;8.878;2022-09-03T16:17:20;23.67;57.85
69208;SHT31;56321;47.662;8.878;2022-09-03T16:20:03;23.66;57.60
69208;SHT31;56321;47.662;8.878;2022-09-03T16:25:21;23.60;57.65
69208;SHT31;56321;47.662;8.878;2022-09-03T16:27:56;23.59;57.21
69208;SHT31;56321;47.662;8.878;2022-09-03T16:39:45;23.42;57.48
69208;SHT31;56321;47.662;8.878;2022-09-03T16:53:12;23.29;58.21
69208;SHT31;56321;47.662;8.878;2022-09-03T17:10:07;23.08;58.88
69208;SHT31;56321;47.662;8.878;2022-09-03T17:15:32;23.02;59.63
69208;SHT31;56321;47.662;8.878;2022-09-03T17:24:02;22.88;61.53
69208;SHT31;56321;47.662;8.878;2022-09-03T17:29:07;22.88;61.58
69208;SHT31;56321;47.662;8.878;2022-09-03T17:31:50;22.86;62.08
69208;SHT31;56321;47.662;8.878;2022-09-03T17:34:36;22.83;62.15
69208;SHT31;56321;47.662;8.878;2022-09-03T17:48:07;22.63;62.51
69208;SHT31;56321;47.662;8.878;2022-09-03T17:50:45;22.59;62.66
69208;SHT31;56321;47.662;8.878;2022-09-03T17:53:22;22.53;62.73
69208;SHT31;56321;47.662;8.878;2022-09-03T17:56:00;22.49;63.07
69208;SHT31;56321;47.662;8.878;2022-09-03T17:58:35;22.46;63.66
69208;SHT31;56321;47.662;8.878;2022-09-03T18:06:11;22.29;63.74
69208;SHT31;56321;47.662;8.878;2022-09-03T18:08:51;22.22;63.89
69208;SHT31;56321;47.662;8.878;2022-09-03T18:16:36;22.02;64.05
69208;SHT31;56321;47.662;8.878;2022-09-03T18:21:57;21.88;64.05
69208;SHT31;56321;47.662;8.878;2022-09-03T18:24:50;21.79;64.28
69208;SHT31;56321;47.662;8.878;2022-09-03T18:27:40;21.68;64.30
69208;SHT31;56321;47.662;8.878;2022-09-03T18:30:25;21.67;64.45
69208;SHT31;56321;47.662;8.878;2022-09-03T18:33:09;21.61;64.64
69208;SHT31;56321;47.662;8.878;2022-09-03T18:35:54;21.54;64.82
69208;SHT31;56321;47.662;8.878;2022-09-03T18:38:38;21.46;64.88
69208;SHT31;56321;47.662;8.878;2022-09-03T18:44:31;21.33;65.28
69208;SHT31;56321;47.662;8.878;2022-09-03T18:53:44;21.13;65.63
69208;SHT31;56321;47.662;8.878;2022-09-03T18:56:41;21.07;65.70
69208;SHT31;56321;47.662;8.878;2022-09-03T19:05:41;20.89;66.04
69208;SHT31;56321;47.662;8.878;2022-09-03T19:08:36;20.86;66.06
69208;SHT31;56321;47.662;8.878;2022-09-03T19:11:31;20.78;66.27
69208;SHT31;56321;47.662;8.878;2022-09-03T19:20:36;20.65;66.69
69208;SHT31;56321;47.662;8.878;2022-09-03T19:23:21;20.64;66.81
69208;SHT31;56321;47.662;8.878;2022-09-03T19:26:18;20.57;67.10
69208;SHT31;56321;47.662;8.878;2022-09-03T19:29:13;20.49;67.10
69208;SHT31;56321;47.662;8.878;2022-09-03T19:32:03;20.43;67.30
69208;SHT31;56321;47.662;8.878;2022-09-03T19:35:11;20.37;67.59
69208;SHT31;56321;47.662;8.878;2022-09-03T19:41:49;20.26;67.87
69208;SHT31;56321;47.662;8.878;2022-09-03T19:44:54;20.23;67.92
69208;SHT31;56321;47.662;8.878;2022-09-03T19:50:36;20.18;67.94
69208;SHT31;56321;47.662;8.878;2022-09-03T19:53:22;20.17;67.99
69208;SHT31;56321;47.662;8.878;2022-09-03T19:56:14;20.12;68.13
69208;SHT31;56321;47.662;8.878;2022-09-03T19:59:11;20.06;68.27
69208;SHT31;56321;47.662;8.878;2022-09-03T20:01:56;20.06;68.22
69208;SHT31;56321;47.662;8.878;2022-09-03T20:04:56;20.05;68.50
69208;SHT31;56321;47.662;8.878;2022-09-03T20:07:41;20.00;68.35
69208;SHT31;56321;47.662;8.878;2022-09-03T20:10:26;20.00;68.48
69208;SHT31;56321;47.662;8.878;2022-09-03T20:13:04;19.99;68.61
69208;SHT31;56321;47.662;8.878;2022-09-03T20:23:34;19.83;68.98
69208;SHT31;56321;47.662;8.878;2022-09-03T20:26:20;19.79;69.02
69208;SHT31;56321;47.662;8.878;2022-09-03T20:31:39;19.75;69.10
69208;SHT31;56321;47.662;8.878;2022-09-03T20:34:32;19.69;69.33
69208;SHT31;56321;47.662;8.878;2022-09-03T20:40:10;19.65;69.24
69208;SHT31;56321;47.662;8.878;2022-09-03T20:46:16;19.59;69.39
69208;SHT31;56321;47.662;8.878;2022-09-03T20:49:09;19.51;69.41
69208;SHT31;56321;47.662;8.878;2022-09-03T20:51:50;19.48;69.31
69208;SHT31;56321;47.662;8.878;2022-09-03T20:54:21;19.45;69.33
69208;SHT31;56321;47.662;8.878;2022-09-03T20:57:21;19.36;69.65
69208;SHT31;56321;47.662;8.878;2022-09-03T21:05:24;19.24;69.86
69208;SHT31;56321;47.662;8.878;2022-09-03T21:15:50;19.11;70.03
69208;SHT31;56321;47.662;8.878;2022-09-03T21:18:41;19.06;70.30
69208;SHT31;56321;47.662;8.878;2022-09-03T21:23:45;19.02;70.26
69208;SHT31;56321;47.662;8.878;2022-09-03T21:26:21;18.97;70.52
69208;SHT31;56321;47.662;8.878;2022-09-03T21:29:18;18.93;70.88
69208;SHT31;56321;47.662;8.878;2022-09-03T21:34:40;18.89;71.07
69208;SHT31;56321;47.662;8.878;2022-09-03T21:37:10;18.90;71.01
69208;SHT31;56321;47.662;8.878;2022-09-03T21:39:55;18.89;71.40
69208;SHT31;56321;47.662;8.878;2022-09-03T21:42:42;18.86;71.32
69208;SHT31;56321;47.662;8.878;2022-09-03T21:47:44;18.80;71.17
69208;SHT31;56321;47.662;8.878;2022-09-03T21:50:22;18.77;71.18